San Angelo, Texas
Current Conditions -  °F | °C
As of 7:51 AM on Sunday 21 Dec 2014 (Local Time) from KSJT Reporting Station
Overcast Overcast  
Wind Chill: 44°   Ceiling: 1100
Heat Index: 49°   Visibility: 10mi
Dew Point: 44°   Wind: 12mph
Humidity: 83%   Direction: 200°SSW
Pressure: 30.02"   Gusts: NA
Location:  31.46°N, 100.44°W
Report Text: KSJT 211351Z 20010KT 10SM OVC011 09/07 A3002 RMK AO2 CIG 009V013 SLP167 T00940067
Loading
Personal Weather Stations






























Interactive Weather Map New forecast layout! Learn more

10-Day Weather Forecast

Advertisements
Track Severe Weather on mobile